Time;durP1;ratioP1;P1;durP2;ratioP2;P2;SDS_P1;SDS_P2;PMS_P1;PMS_P2;Temp;Humidity;BMP_temperature;BMP_pressure;BME280_temperature;BME280_humidity;BME280_pressure;Samples;Min_cycle;Max_cycle;Signal;HPM_P1;HPM_P2
2022/10/17 00:00:54;;;;;;;0.50;0.50;;;10.60;99.90;;;;;;5088407;28;20220;-77
2022/10/17 00:03:19;;;;;;;0.60;0.60;;;10.60;99.90;;;;;;5086445;28;20213;-77
2022/10/17 00:05:46;;;;;;;0.40;0.40;;;10.60;99.90;;;;;;5089343;28;20249;-77
2022/10/17 00:08:14;;;;;;;0.50;0.50;;;10.70;99.90;;;;;;5090536;28;20196;-78
2022/10/17 00:10:40;;;;;;;0.50;0.50;;;10.70;99.90;;;;;;5084127;28;20196;-78
2022/10/17 00:13:06;;;;;;;0.50;0.50;;;10.70;99.90;;;;;;5080068;28;20178;-77
2022/10/17 00:15:32;;;;;;;0.50;0.50;;;10.60;99.90;;;;;;5080027;28;20186;-78
2022/10/17 00:17:58;;;;;;;0.50;0.50;;;10.70;99.90;;;;;;5080105;28;20174;-77
2022/10/17 00:20:23;;;;;;;0.40;0.40;;;10.80;99.90;;;;;;5078173;28;20577;-78
2022/10/17 00:22:50;;;;;;;0.40;0.40;;;10.70;99.90;;;;;;5079937;28;20226;-78
2022/10/17 00:25:16;;;;;;;0.43;0.43;;;10.70;99.90;;;;;;5080705;28;20194;-79
2022/10/17 00:27:42;;;;;;;0.50;0.50;;;10.70;99.90;;;;;;5079684;28;20186;-77
2022/10/17 00:30:11;;;;;;;0.50;0.50;;;10.70;99.90;;;;;;5077595;28;20194;-78
2022/10/17 00:32:37;;;;;;;0.50;0.50;;;10.70;99.90;;;;;;5078826;28;20183;-78
2022/10/17 00:35:03;;;;;;;0.50;0.50;;;10.70;99.90;;;;;;5079138;28;20257;-78
2022/10/17 00:37:30;;;;;;;0.50;0.50;;;10.70;99.90;;;;;;5079726;28;20260;-78
2022/10/17 00:39:55;;;;;;;0.50;0.50;;;10.70;99.90;;;;;;5080125;28;20194;-77
2022/10/17 00:42:23;;;;;;;0.40;0.40;;;10.70;99.90;;;;;;5080923;28;20214;-77
2022/10/17 00:44:49;;;;;;;0.47;0.47;;;10.70;99.90;;;;;;5081847;28;20174;-78
2022/10/17 00:47:18;;;;;;;0.40;0.40;;;10.70;99.90;;;;;;5086107;28;20205;-78
2022/10/17 00:49:44;;;;;;;0.40;0.40;;;10.60;99.90;;;;;;5085205;28;20175;-78
2022/10/17 00:52:29;;;;;;;0.50;0.50;;;10.40;99.90;;;;;;5084864;28;20175;-78
2022/10/17 00:55:01;;;;;;;0.30;0.30;;;10.40;99.90;;;;;;5083607;28;20175;-78
2022/10/17 00:57:28;;;;;;;0.50;0.50;;;10.30;99.90;;;;;;5082584;28;20174;-78
2022/10/17 00:59:55;;;;;;;0.43;0.43;;;10.30;99.90;;;;;;5081416;28;20171;-77
2022/10/17 01:02:21;;;;;;;0.50;0.50;;;10.20;99.90;;;;;;5082384;28;20201;-77
2022/10/17 01:04:50;;;;;;;0.40;0.40;;;10.20;99.90;;;;;;5083722;28;20174;-78
2022/10/17 01:07:16;;;;;;;0.50;0.50;;;10.20;99.90;;;;;;5082966;28;20178;-77
2022/10/17 01:09:43;;;;;;;0.60;0.60;;;10.20;99.90;;;;;;5083109;28;20200;-78
2022/10/17 01:12:27;;;;;;;0.50;0.50;;;10.10;99.90;;;;;;5083178;28;20528;-78
2022/10/17 01:15:19;;;;;;;0.47;0.47;;;10.20;99.90;;;;;;5082952;28;20186;-77
2022/10/17 01:18:02;;;;;;;0.50;0.50;;;10.20;99.90;;;;;;5083238;28;20175;-78
2022/10/17 01:20:48;;;;;;;0.50;0.50;;;10.20;99.90;;;;;;5082699;28;20240;-77
2022/10/17 01:23:26;;;;;;;0.40;0.40;;;10.10;99.90;;;;;;5082549;28;20299;-78
2022/10/17 01:26:12;;;;;;;0.50;0.50;;;9.90;99.90;;;;;;5083052;28;20216;-78
2022/10/17 01:29:05;;;;;;;0.50;0.50;;;9.90;99.90;;;;;;5083671;28;20568;-77
2022/10/17 01:31:41;;;;;;;0.60;0.60;;;10.00;99.90;;;;;;5082482;28;20209;-78
2022/10/17 01:34:31;;;;;;;0.50;0.50;;;10.00;99.90;;;;;;5083661;28;20182;-78
2022/10/17 01:37:22;;;;;;;0.50;0.50;;;10.00;99.90;;;;;;5084024;28;20210;-78
2022/10/17 01:40:07;;;;;;;0.50;0.50;;;9.90;99.90;;;;;;5083822;28;20183;-78
2022/10/17 01:42:36;;;;;;;0.60;0.60;;;10.00;99.90;;;;;;5084254;28;20198;-78
2022/10/17 01:45:16;;;;;;;0.53;0.53;;;10.00;99.90;;;;;;5086450;28;20304;-77
2022/10/17 01:47:45;;;;;;;0.60;0.60;;;9.90;99.90;;;;;;5086238;28;20181;-78
2022/10/17 01:50:20;;;;;;;0.40;0.40;;;10.00;99.90;;;;;;5083004;28;20208;-78
2022/10/17 01:52:51;;;;;;;0.50;0.50;;;9.90;99.90;;;;;;5083178;28;20179;-78
2022/10/17 01:55:22;;;;;;;0.50;0.50;;;9.90;99.90;;;;;;5082627;28;20179;-78
2022/10/17 01:57:56;;;;;;;0.60;0.60;;;10.10;99.90;;;;;;5083508;28;20175;-78
2022/10/17 02:00:24;;;;;;;0.50;0.50;;;10.00;99.90;;;;;;5085222;28;20200;-78
2022/10/17 02:02:55;;;;;;;0.57;0.57;;;9.90;99.90;;;;;;5086007;28;20218;-78
2022/10/17 02:05:27;;;;;;;0.47;0.47;;;9.90;99.90;;;;;;5083036;28;20178;-78
2022/10/17 02:07:53;;;;;;;0.50;0.50;;;9.90;99.90;;;;;;5081385;28;20179;-78
2022/10/17 02:10:35;;;;;;;0.50;0.50;;;10.20;99.90;;;;;;5080882;28;20209;-79
2022/10/17 02:13:18;;;;;;;0.60;0.60;;;10.00;99.90;;;;;;5081372;28;20181;-77
2022/10/17 02:16:05;;;;;;;0.40;0.40;;;10.00;99.90;;;;;;5081614;28;20174;-78
2022/10/17 02:18:37;;;;;;;0.50;0.50;;;9.90;99.90;;;;;;5082006;28;20670;-78
2022/10/17 02:21:14;;;;;;;0.50;0.50;;;9.80;99.90;;;;;;5083767;28;20277;-77
2022/10/17 02:24:02;;;;;;;0.60;0.60;;;9.70;99.90;;;;;;5080487;28;20263;-77
2022/10/17 02:26:56;;;;;;;0.60;0.60;;;9.70;99.90;;;;;;5062675;28;20202;-78
2022/10/17 02:29:31;;;;;;;0.50;0.50;;;9.70;99.90;;;;;;5087090;28;20185;-78
2022/10/17 02:32:08;;;;;;;0.60;0.60;;;9.60;99.90;;;;;;5090932;28;20194;-77
2022/10/17 02:34:40;;;;;;;0.50;0.50;;;9.60;99.90;;;;;;5091684;28;20398;-77
2022/10/17 02:37:08;;;;;;;0.50;0.50;;;9.60;99.90;;;;;;5092181;28;20162;-78
2022/10/17 02:39:35;;;;;;;0.60;0.60;;;9.60;99.90;;;;;;5088976;28;20174;-78
2022/10/17 02:42:08;;;;;;;0.40;0.40;;;9.60;99.90;;;;;;5083299;28;20198;-78
2022/10/17 02:44:36;;;;;;;0.60;0.60;;;9.60;99.90;;;;;;5082929;28;20643;-78
2022/10/17 02:47:19;;;;;;;0.60;0.60;;;9.50;99.90;;;;;;5081811;28;20179;-78
2022/10/17 02:49:50;;;;;;;0.50;0.50;;;9.50;99.90;;;;;;5081607;28;20673;-78
2022/10/17 02:52:37;;;;;;;0.50;0.50;;;9.50;99.90;;;;;;5083793;28;20592;-78
2022/10/17 02:55:24;;;;;;;0.50;0.50;;;9.40;99.90;;;;;;5084726;28;20209;-78
2022/10/17 02:57:57;;;;;;;0.50;0.50;;;9.40;99.90;;;;;;5086113;28;20175;-79
2022/10/17 03:00:25;;;;;;;0.50;0.50;;;9.40;99.90;;;;;;5084837;28;20198;-79
2022/10/17 03:02:52;;;;;;;0.57;0.57;;;9.30;99.90;;;;;;5086759;28;20224;-78
2022/10/17 03:05:23;;;;;;;0.57;0.57;;;9.30;99.90;;;;;;5086833;28;20181;-78
2022/10/17 03:07:50;;;;;;;0.50;0.50;;;9.40;99.90;;;;;;5087348;28;20199;-79
2022/10/17 03:10:16;;;;;;;0.60;0.60;;;9.40;99.90;;;;;;5086412;28;20228;-78
2022/10/17 03:12:41;;;;;;;0.60;0.60;;;9.40;99.90;;;;;;5083384;28;20178;-78
2022/10/17 03:15:07;;;;;;;0.53;0.53;;;9.40;99.90;;;;;;5083235;28;20605;-78
2022/10/17 03:17:33;;;;;;;0.60;0.60;;;9.30;99.90;;;;;;5085133;28;20242;-78
2022/10/17 03:19:59;;;;;;;0.53;0.53;;;9.50;99.90;;;;;;5089320;28;20212;-77
2022/10/17 03:22:24;;;;;;;0.40;0.40;;;9.40;99.90;;;;;;5090746;28;20202;-77
2022/10/17 03:24:50;;;;;;;0.40;0.40;;;9.60;99.90;;;;;;5088705;28;20241;-77
2022/10/17 03:27:15;;;;;;;0.50;0.50;;;9.30;99.90;;;;;;5090616;28;20170;-78
2022/10/17 03:29:41;;;;;;;0.60;0.60;;;9.20;99.90;;;;;;5088519;28;20208;-78
2022/10/17 03:32:07;;;;;;;0.60;0.60;;;9.20;99.90;;;;;;5085325;28;20178;-77
2022/10/17 03:34:32;;;;;;;0.50;0.50;;;9.10;99.90;;;;;;5082127;28;20189;-77
2022/10/17 03:36:58;;;;;;;0.50;0.50;;;9.10;99.90;;;;;;5082231;28;20178;-77
2022/10/17 03:39:23;;;;;;;0.50;0.50;;;9.20;99.90;;;;;;5085698;28;20190;-77
2022/10/17 03:41:49;;;;;;;0.60;0.60;;;9.20;99.90;;;;;;5066354;28;20221;-77
2022/10/17 03:44:15;;;;;;;0.50;0.50;;;9.20;99.90;;;;;;5083685;28;20276;-77
2022/10/17 03:46:40;;;;;;;0.50;0.50;;;9.20;99.90;;;;;;5084464;28;20543;-77
2022/10/17 03:49:07;;;;;;;0.50;0.50;;;9.20;99.90;;;;;;5082503;28;20205;-77
2022/10/17 03:51:34;;;;;;;0.50;0.50;;;9.10;99.90;;;;;;5085752;28;20205;-77
2022/10/17 03:53:59;;;;;;;0.50;0.50;;;9.10;99.90;;;;;;5086235;28;20178;-78
2022/10/17 03:56:25;;;;;;;0.60;0.60;;;9.00;99.90;;;;;;5087401;28;20234;-78
2022/10/17 03:58:51;;;;;;;0.50;0.50;;;8.90;99.90;;;;;;5085317;28;20170;-77
2022/10/17 04:01:18;;;;;;;0.60;0.60;;;8.90;99.90;;;;;;5084988;28;20193;-77
2022/10/17 04:03:47;;;;;;;0.60;0.60;;;9.10;99.90;;;;;;5083426;28;20210;-77
2022/10/17 04:06:12;;;;;;;0.67;0.67;;;9.00;99.90;;;;;;5076584;28;20170;-77
2022/10/17 04:08:38;;;;;;;0.60;0.60;;;9.00;99.90;;;;;;5074926;28;20537;-78
2022/10/17 04:11:06;;;;;;;0.60;0.60;;;9.00;99.90;;;;;;5074501;28;20194;-77
2022/10/17 04:13:32;;;;;;;0.70;0.70;;;9.00;99.90;;;;;;5074833;28;20174;-77
2022/10/17 04:16:04;;;;;;;0.80;0.80;;;9.10;99.90;;;;;;5074905;28;20196;-77
2022/10/17 04:18:30;;;;;;;0.70;0.70;;;9.00;99.90;;;;;;5070322;28;20175;-77
2022/10/17 04:20:56;;;;;;;0.70;0.70;;;9.00;99.90;;;;;;5085635;28;20192;-78
2022/10/17 04:23:21;;;;;;;0.67;0.67;;;8.90;99.90;;;;;;5097242;28;20270;-78
2022/10/17 04:25:48;;;;;;;0.60;0.60;;;9.00;99.90;;;;;;5099240;28;20177;-78
2022/10/17 04:28:13;;;;;;;0.70;0.70;;;9.10;99.90;;;;;;5091922;28;20197;-77
2022/10/17 04:30:39;;;;;;;0.50;0.50;;;9.10;99.90;;;;;;5091399;28;20189;-77
2022/10/17 04:33:05;;;;;;;0.60;0.60;;;9.00;99.90;;;;;;5103515;28;20185;-78
2022/10/17 04:35:30;;;;;;;0.60;0.60;;;9.00;99.90;;;;;;5091015;28;20541;-80
2022/10/17 04:37:56;;;;;;;0.67;0.67;;;9.00;99.90;;;;;;5092628;28;20680;-80
2022/10/17 04:40:22;;;;;;;0.80;0.80;;;9.00;99.90;;;;;;5093388;28;20906;-77
2022/10/17 04:42:47;;;;;;;0.60;0.60;;;8.80;99.90;;;;;;5076841;28;20216;-77
2022/10/17 04:45:13;;;;;;;0.60;0.60;;;8.90;99.90;;;;;;5076134;28;20178;-76
2022/10/17 04:47:38;;;;;;;0.60;0.60;;;8.80;99.90;;;;;;5078166;28;20249;-79
2022/10/17 04:50:04;;;;;;;0.60;0.60;;;8.80;99.90;;;;;;5077945;28;20201;-79
2022/10/17 04:52:30;;;;;;;0.60;0.60;;;8.70;99.90;;;;;;5077456;28;20210;-79
2022/10/17 04:54:56;;;;;;;0.70;0.70;;;8.70;99.90;;;;;;5077637;28;20519;-80
2022/10/17 04:57:22;;;;;;;0.60;0.60;;;8.70;99.90;;;;;;5077182;28;20183;-79
2022/10/17 04:59:48;;;;;;;0.60;0.60;;;8.70;99.90;;;;;;5080295;28;20193;-79
2022/10/17 05:02:13;;;;;;;0.50;0.50;;;8.80;99.90;;;;;;5089041;28;20214;-78
2022/10/17 05:04:39;;;;;;;0.70;0.70;;;8.70;99.90;;;;;;5103150;28;20176;-77
2022/10/17 05:07:04;;;;;;;0.60;0.60;;;8.70;99.90;;;;;;5103738;28;20583;-77
2022/10/17 05:09:30;;;;;;;0.50;0.50;;;8.70;99.90;;;;;;5102796;28;20218;-78
2022/10/17 05:11:55;;;;;;;0.60;0.60;;;8.70;99.90;;;;;;5099251;28;20193;-77
2022/10/17 05:14:21;;;;;;;0.70;0.70;;;8.70;99.90;;;;;;5102205;28;20337;-78
2022/10/17 05:16:46;;;;;;;0.70;0.70;;;8.70;99.90;;;;;;5102360;28;20227;-77
2022/10/17 05:19:12;;;;;;;0.70;0.70;;;8.70;99.90;;;;;;5102716;28;20260;-78
2022/10/17 05:21:38;;;;;;;0.60;0.60;;;8.70;99.90;;;;;;5101689;28;20190;-77
2022/10/17 05:24:05;;;;;;;0.60;0.60;;;8.70;99.90;;;;;;5081063;28;20257;-77
2022/10/17 05:26:31;;;;;;;0.57;0.57;;;8.70;99.90;;;;;;5059417;28;20210;-77
2022/10/17 05:28:59;;;;;;;0.70;0.70;;;8.60;99.90;;;;;;5059255;28;20557;-78
2022/10/17 05:31:24;;;;;;;0.60;0.60;;;8.60;99.90;;;;;;5060766;28;20738;-77
2022/10/17 05:33:50;;;;;;;0.67;0.67;;;8.70;99.90;;;;;;5062022;28;20199;-78
2022/10/17 05:36:15;;;;;;;0.60;0.60;;;8.70;99.90;;;;;;5054413;28;20539;-77
2022/10/17 05:38:41;;;;;;;0.53;0.53;;;8.70;99.90;;;;;;5053685;28;20214;-77
2022/10/17 05:41:06;;;;;;;0.70;0.70;;;8.80;99.90;;;;;;5066095;28;20194;-77
2022/10/17 05:43:33;;;;;;;0.70;0.70;;;8.90;99.90;;;;;;5064275;28;20217;-77
2022/10/17 05:46:05;;;;;;;0.70;0.70;;;9.00;99.90;;;;;;5079994;28;20174;-80
2022/10/17 05:48:31;;;;;;;0.50;0.50;;;9.00;99.90;;;;;;5085544;28;20210;-78
2022/10/17 05:51:00;;;;;;;0.70;0.70;;;8.90;99.90;;;;;;5073308;28;20195;-77
2022/10/17 05:53:28;;;;;;;0.60;0.60;;;9.00;99.90;;;;;;5072800;28;20221;-76
2022/10/17 05:55:56;;;;;;;0.57;0.57;;;8.90;99.90;;;;;;5067818;28;20234;-81
2022/10/17 05:58:21;;;;;;;0.67;0.67;;;8.80;99.90;;;;;;5076559;28;20182;-78
2022/10/17 06:00:47;;;;;;;0.67;0.67;;;8.80;99.90;;;;;;5085493;28;20343;-78
2022/10/17 06:03:12;;;;;;;0.60;0.60;;;8.90;99.90;;;;;;5083847;28;20206;-78
2022/10/17 06:05:38;;;;;;;0.70;0.70;;;9.00;99.90;;;;;;5077592;28;20179;-77
2022/10/17 06:08:03;;;;;;;0.70;0.70;;;9.20;99.90;;;;;;5080732;28;20185;-78
2022/10/17 06:10:29;;;;;;;0.60;0.60;;;9.40;99.90;;;;;;5081084;28;20194;-78
2022/10/17 06:12:55;;;;;;;0.57;0.57;;;9.70;99.90;;;;;;5080729;28;20228;-78
2022/10/17 06:15:21;;;;;;;0.50;0.50;;;9.80;99.90;;;;;;5081734;28;20550;-78
2022/10/17 06:17:46;;;;;;;0.70;0.70;;;10.00;99.90;;;;;;5083579;28;20186;-79
2022/10/17 06:20:12;;;;;;;0.60;0.60;;;10.20;99.90;;;;;;5082512;28;20209;-78
2022/10/17 06:22:37;;;;;;;0.60;0.60;;;10.30;99.90;;;;;;5084074;28;20225;-78
2022/10/17 06:25:03;;;;;;;0.60;0.60;;;10.30;99.90;;;;;;5082549;28;20636;-80
2022/10/17 06:27:29;;;;;;;0.57;0.57;;;10.50;99.90;;;;;;5078328;28;20185;-77
2022/10/17 06:29:54;;;;;;;0.50;0.50;;;10.60;99.90;;;;;;5077586;28;20186;-78
2022/10/17 06:32:20;;;;;;;0.50;0.50;;;11.00;99.90;;;;;;5078346;28;20186;-77
2022/10/17 06:34:45;;;;;;;0.50;0.50;;;11.50;99.90;;;;;;5078090;28;20179;-78
2022/10/17 06:37:11;;;;;;;0.50;0.50;;;11.50;99.90;;;;;;5081326;28;20178;-78
2022/10/17 06:39:36;;;;;;;0.40;0.40;;;11.90;99.90;;;;;;5079726;28;20180;-77
2022/10/17 06:42:03;;;;;;;0.43;0.43;;;12.80;1.00;;;;;;5079799;28;20281;-78
2022/10/17 06:44:30;;;;;;;0.40;0.40;;;13.10;1.00;;;;;;5082560;28;20213;-78
2022/10/17 06:46:59;;;;;;;0.50;0.50;;;12.90;1.00;;;;;;5080730;28;20225;-78
2022/10/17 06:49:25;;;;;;;0.40;0.40;;;13.40;1.00;;;;;;5083961;28;20241;-78
2022/10/17 06:51:51;;;;;;;0.40;0.40;;;13.90;1.00;;;;;;5086165;28;20213;-78
2022/10/17 06:54:16;;;;;;;0.40;0.40;;;14.70;1.00;;;;;;5086853;28;20179;-78
2022/10/17 06:56:42;;;;;;;0.30;0.30;;;14.70;1.00;;;;;;5089593;28;20192;-79
2022/10/17 06:59:09;;;;;;;0.30;0.30;;;14.40;1.00;;;;;;5083907;28;20586;-79
2022/10/17 07:01:35;;;;;;;0.40;0.40;;;15.20;1.00;;;;;;5086625;28;20221;-80
2022/10/17 07:04:00;;;;;;;0.40;0.40;;;15.90;1.00;;;;;;5092555;28;20634;-79
2022/10/17 07:06:26;;;;;;;0.40;0.40;;;16.40;1.00;;;;;;5088052;28;20279;-80
2022/10/17 07:08:52;;;;;;;0.40;0.40;;;16.80;1.00;;;;;;5088434;28;20178;-80
2022/10/17 07:11:20;;;;;;;0.40;0.40;;;16.70;1.00;;;;;;5087046;28;20194;-80
2022/10/17 07:13:46;;;;;;;0.40;0.40;;;17.00;1.00;;;;;;5087881;28;20224;-80
2022/10/17 07:16:13;;;;;;;0.50;0.50;;;17.50;1.00;;;;;;5089295;28;20179;-80
2022/10/17 07:18:39;;;;;;;0.37;0.37;;;17.50;99.90;;;;;;5088601;28;20212;-79
2022/10/17 07:21:07;;;;;;;0.40;0.40;;;17.50;1.00;;;;;;5088260;28;20186;-80
2022/10/17 07:23:35;;;;;;;0.40;0.40;;;17.40;1.00;;;;;;5089064;28;20211;-80
2022/10/17 07:26:07;;;;;;;0.50;0.50;;;17.60;99.90;;;;;;5089267;28;20202;-80
2022/10/17 07:28:34;;;;;;;0.60;0.60;;;18.10;1.00;;;;;;5088904;28;20197;-81
2022/10/17 07:31:12;;;;;;;0.70;0.70;;;17.90;99.90;;;;;;5087301;28;20284;-81
2022/10/17 07:33:37;;;;;;;0.60;0.60;;;17.90;1.00;;;;;;5088972;28;20237;-81
2022/10/17 07:36:04;;;;;;;0.60;0.60;;;18.20;99.90;;;;;;5088730;28;20700;-80
2022/10/17 07:38:30;;;;;;;0.60;0.60;;;18.30;99.90;;;;;;5092287;28;20223;-80
2022/10/17 07:40:57;;;;;;;0.60;0.60;;;18.40;1.00;;;;;;5098184;28;20205;-81
2022/10/17 07:43:24;;;;;;;0.60;0.60;;;18.40;1.00;;;;;;5088918;28;20202;-81
2022/10/17 07:45:50;;;;;;;0.60;0.60;;;18.50;99.90;;;;;;5093729;28;20202;-80
2022/10/17 07:48:16;;;;;;;0.57;0.57;;;18.90;1.00;;;;;;5096941;28;20197;-82
2022/10/17 07:50:41;;;;;;;0.60;0.60;;;18.70;99.90;;;;;;5093873;28;20293;-83
2022/10/17 07:53:07;;;;;;;0.70;0.70;;;19.40;1.00;;;;;;5087157;28;20185;-81
2022/10/17 07:55:33;;;;;;;0.60;0.60;;;19.60;1.00;;;;;;5086597;28;20181;-81
2022/10/17 07:57:59;;;;;;;0.70;0.70;;;19.80;99.90;;;;;;5094152;28;20200;-80
2022/10/17 08:00:25;;;;;;;0.57;0.57;;;19.90;1.00;;;;;;5101094;28;20209;-80
2022/10/17 08:02:51;;;;;;;0.37;0.37;;;19.90;1.00;;;;;;5085196;28;20343;-79
2022/10/17 08:05:16;;;;;;;0.50;0.50;;;20.20;99.90;;;;;;5080193;28;20785;-79
2022/10/17 08:07:42;;;;;;;0.47;0.47;;;20.40;99.90;;;;;;5089934;28;20676;-78
2022/10/17 08:10:10;;;;;;;0.40;0.40;;;20.90;99.90;;;;;;5089566;28;20233;-79
2022/10/17 08:12:35;;;;;;;0.40;0.40;;;21.20;99.90;;;;;;5082191;28;20198;-80
2022/10/17 08:15:01;;;;;;;0.40;0.40;;;21.20;99.90;;;;;;5083701;28;20230;-78
2022/10/17 08:17:26;;;;;;;0.40;0.40;;;20.80;99.90;;;;;;5088684;28;20181;-79
2022/10/17 08:19:52;;;;;;;0.50;0.50;;;20.50;99.90;;;;;;5087754;28;20178;-78
2022/10/17 08:22:17;;;;;;;0.47;0.47;;;20.90;99.90;;;;;;5084568;28;20181;-79
2022/10/17 08:24:45;;;;;;;0.40;0.40;;;21.00;99.90;;;;;;5077843;28;20193;-81
2022/10/17 08:27:12;;;;;;;0.40;0.40;;;21.20;99.90;;;;;;5080475;28;20226;-80
2022/10/17 08:29:38;;;;;;;0.50;0.50;;;21.80;99.90;;;;;;5081610;28;20175;-80
2022/10/17 08:32:05;;;;;;;0.40;0.40;;;22.30;1.00;;;;;;5078685;28;20206;-79
2022/10/17 08:34:30;;;;;;;0.43;0.43;;;22.80;1.00;;;;;;5073322;28;20683;-85
2022/10/17 08:36:56;;;;;;;0.20;0.20;;;23.00;1.00;;;;;;5074594;28;20500;-86
2022/10/17 08:39:21;;;;;;;0.30;0.30;;;23.00;1.00;;;;;;5084429;28;20178;-84
2022/10/17 08:41:52;;;;;;;0.40;0.40;;;23.00;1.00;;;;;;5089272;28;21071;-83
2022/10/17 08:44:43;;;;;;;0.30;0.30;;;22.40;1.00;;;;;;5107253;28;20193;-83
2022/10/17 08:47:18;;;;;;;0.40;0.40;;;22.30;1.00;;;;;;5082105;28;20210;-79
2022/10/17 08:50:00;;;;;;;0.37;0.37;;;22.00;99.90;;;;;;5093449;28;20174;-80
2022/10/17 08:52:56;;;;;;;0.30;0.30;;;22.40;1.00;;;;;;5080901;28;20900;-78
2022/10/17 08:55:35;;;;;;;0.40;0.40;;;22.40;38.40;;;;;;5082173;28;20217;-79
2022/10/17 08:58:01;;;;;;;0.37;0.37;;;22.90;1.00;;;;;;5083013;28;20171;-78
2022/10/17 09:00:29;;;;;;;0.47;0.47;;;23.60;1.00;;;;;;5087314;28;20220;-79
2022/10/17 09:03:16;;;;;;;0.40;0.40;;;24.10;1.00;;;;;;5094531;28;20242;-81
2022/10/17 09:05:48;;;;;;;0.30;0.30;;;23.80;1.00;;;;;;5090066;28;20188;-78
2022/10/17 09:08:44;;;;;;;0.27;0.27;;;23.30;1.00;;;;;;5101861;28;20212;-79
2022/10/17 09:11:30;;;;;;;0.40;0.40;;;23.80;1.00;;;;;;5080825;28;20206;-78
2022/10/17 09:14:04;;;;;;;0.20;0.20;;;24.00;1.00;;;;;;5088780;28;20178;-79
2022/10/17 09:17:00;;;;;;;0.20;0.20;;;24.10;1.00;;;;;;5084730;28;20186;-79
2022/10/17 09:19:36;;;;;;;0.33;0.33;;;24.10;1.00;;;;;;5085921;28;20212;-78
2022/10/17 09:22:07;;;;;;;0.53;0.53;;;24.20;1.00;;;;;;5064214;28;20223;-80
2022/10/17 09:24:56;;;;;;;0.20;0.20;;;24.60;1.00;;;;;;5058174;28;20226;-79
2022/10/17 09:27:26;;;;;;;0.33;0.33;;;24.00;1.00;;;;;;5076968;28;20186;-78
2022/10/17 09:30:01;;;;;;;0.30;0.30;;;23.80;1.00;;;;;;5081650;28;20175;-80
2022/10/17 09:32:27;;;;;;;0.30;0.30;;;24.00;1.00;;;;;;5075012;28;20178;-80
2022/10/17 09:34:53;;;;;;;0.50;0.50;;;24.50;1.00;;;;;;5090410;28;20229;-80
2022/10/17 09:37:23;;;;;;;0.40;0.40;;;24.80;1.00;;;;;;5087875;28;20257;-79
2022/10/17 09:39:49;;;;;;;0.43;0.43;;;24.90;1.00;;;;;;5086207;28;20221;-80
2022/10/17 09:42:20;;;;;;;0.30;0.30;;;24.90;1.00;;;;;;5085538;28;20182;-80
2022/10/17 09:45:14;;;;;;;0.30;0.30;;;25.50;1.00;;;;;;5091982;28;20192;-80
2022/10/17 09:47:49;;;;;;;0.40;0.40;;;25.80;1.00;;;;;;5086038;28;20182;-79
2022/10/17 09:50:27;;;;;;;0.23;0.23;;;25.70;1.00;;;;;;5085957;28;20192;-81
2022/10/17 09:52:55;;;;;;;0.40;0.40;;;25.50;1.00;;;;;;5065336;28;20242;-80
2022/10/17 09:55:25;;;;;;;0.30;0.30;;;24.90;1.00;;;;;;5076503;28;20178;-79
2022/10/17 09:58:00;;;;;;;0.30;0.30;;;25.00;1.00;;;;;;5085816;28;20177;-80
2022/10/17 10:00:31;;;;;;;0.30;0.30;;;25.30;1.00;;;;;;5085231;28;20205;-80
2022/10/17 10:03:19;;;;;;;0.30;0.30;;;24.80;1.00;;;;;;5088651;28;20356;-79
2022/10/17 10:06:13;;;;;;;0.30;0.30;;;24.40;1.00;;;;;;5088274;28;20258;-80
2022/10/17 10:08:50;;;;;;;0.60;0.60;;;24.30;1.00;;;;;;5085400;28;20201;-79
2022/10/17 10:11:17;;;;;;;0.43;0.43;;;24.50;1.00;;;;;;5087653;28;20289;-79
2022/10/17 10:13:46;;;;;;;0.60;0.60;;;23.60;1.00;;;;;;5085953;28;20202;-79
2022/10/17 10:16:14;;;;;;;0.60;0.60;;;24.10;1.00;;;;;;5080610;28;20162;-79
2022/10/17 10:18:39;;;;;;;0.60;0.60;;;24.90;1.00;;;;;;5090566;28;20204;-80
2022/10/17 10:21:05;;;;;;;0.60;0.60;;;25.60;1.00;;;;;;5086604;28;20195;-81
2022/10/17 10:23:31;;;;;;;0.57;0.57;;;25.10;1.00;;;;;;5096231;28;20287;-80
2022/10/17 10:26:00;;;;;;;0.60;0.60;;;25.60;1.00;;;;;;5085644;28;20246;-79
2022/10/17 10:28:30;;;;;;;0.50;0.50;;;25.70;1.00;;;;;;5089908;28;20171;-79
2022/10/17 10:30:58;;;;;;;0.60;0.60;;;26.00;1.00;;;;;;5092071;28;20208;-79
2022/10/17 10:33:27;;;;;;;0.50;0.50;;;25.70;1.00;;;;;;5096121;28;20189;-80
2022/10/17 10:36:02;;;;;;;0.60;0.60;;;25.40;1.00;;;;;;5084832;28;20182;-80
2022/10/17 10:38:30;;;;;;;0.30;0.30;;;25.70;1.00;;;;;;5088248;28;20262;-79
2022/10/17 10:41:06;;;;;;;0.40;0.40;;;26.10;1.00;;;;;;5095696;28;20194;-80
2022/10/17 10:43:39;;;;;;;0.73;0.73;;;26.40;1.00;;;;;;5073601;28;20707;-82
2022/10/17 10:46:26;;;;;;;0.57;0.57;;;26.00;1.00;;;;;;5057658;28;20186;-82
2022/10/17 10:48:59;;;;;;;0.60;0.60;;;26.10;1.00;;;;;;5064869;28;20202;-82
2022/10/17 10:51:34;;;;;;;0.73;0.73;;;26.00;1.00;;;;;;5072081;28;20328;-82
2022/10/17 10:54:24;;;;;;;0.47;0.47;;;26.50;1.00;;;;;;5068475;28;20185;-82
2022/10/17 10:56:55;;;;;;;0.50;0.50;;;26.50;1.00;;;;;;5070143;28;20730;-83
2022/10/17 10:59:36;;;;;;;0.70;0.70;;;26.80;1.00;;;;;;5054052;28;20179;-81
2022/10/17 11:02:32;;;;;;;0.50;0.50;;;26.60;1.00;;;;;;5058382;28;20259;-83
2022/10/17 11:05:13;;;;;;;0.60;0.60;;;27.00;1.00;;;;;;5068011;28;20190;-79
2022/10/17 11:07:57;;;;;;;0.53;0.53;;;27.20;1.00;;;;;;5063200;28;20175;-82
2022/10/17 11:10:44;;;;;;;0.53;0.53;;;27.10;1.00;;;;;;5076159;28;20229;-84
2022/10/17 11:13:36;;;;;;;0.50;0.50;;;27.80;1.00;;;;;;5080124;28;20189;-81
2022/10/17 11:16:23;;;;;;;0.40;0.40;;;28.40;1.00;;;;;;5074627;28;20216;-81
2022/10/17 11:19:13;;;;;;;0.40;0.40;;;28.60;1.00;;;;;;5054821;28;20299;-82
2022/10/17 11:22:14;;;;;;;0.60;0.60;;;28.10;1.00;;;;;;5073050;28;20206;-82
2022/10/17 11:24:47;;;;;;;0.52;0.52;;;28.00;1.00;;;;;;5069204;28;20198;-82
2022/10/17 11:27:12;;;;;;;0.45;0.45;;;28.40;1.00;;;;;;5067661;28;20174;-81
2022/10/17 11:29:40;;;;;;;0.40;0.40;;;29.00;1.00;;;;;;5034258;28;20185;-81
2022/10/17 11:32:19;;;;;;;0.40;0.40;;;29.30;1.00;;;;;;5066654;28;20178;-81
2022/10/17 11:34:56;;;;;;;0.13;0.13;;;29.60;1.00;;;;;;5068335;28;20186;-82
2022/10/17 11:37:34;;;;;;;0.40;0.40;;;30.00;1.00;;;;;;5066769;28;20666;-80
2022/10/17 11:40:05;;;;;;;0.40;0.40;;;30.30;1.00;;;;;;5061020;28;21948;-82
2022/10/17 11:42:37;;;;;;;0.20;0.20;;;30.80;1.00;;;;;;5066389;28;20249;-80
2022/10/17 11:45:10;;;;;;;0.40;0.40;;;30.10;1.00;;;;;;5065344;28;20252;-82
2022/10/17 11:47:53;;;;;;;0.50;0.50;;;30.10;1.00;;;;;;5046060;28;21006;-80
2022/10/17 11:50:21;;;;;;;0.25;0.25;;;30.20;1.00;;;;;;5081993;28;20198;-82
2022/10/17 11:53:00;;;;;;;0.15;0.15;;;30.60;1.00;;;;;;5072512;28;20181;-85
2022/10/17 11:55:28;;;;;;;0.20;0.20;;;30.60;1.00;;;;;;5056151;28;21051;-80
2022/10/17 11:58:08;;;;;;;0.28;0.28;;;30.70;1.00;;;;;;5073874;28;20769;-82
2022/10/17 12:00:58;;;;;;;0.20;0.20;;;30.70;1.00;;;;;;5061438;28;20205;-81
2022/10/17 12:03:37;;;;;;;0.20;0.20;;;31.30;1.00;;;;;;5073257;28;20773;-84
2022/10/17 12:06:16;;;;;;;0.10;0.10;;;31.80;1.00;;;;;;5074107;28;20178;-79
2022/10/17 12:09:06;;;;;;;0.20;0.20;;;31.50;1.00;;;;;;5072692;28;20175;-83
2022/10/17 12:11:54;;;;;;;0.10;0.10;;;31.40;1.00;;;;;;5067829;28;20195;-81
2022/10/17 12:14:39;;;;;;;0.43;0.43;;;30.90;1.00;;;;;;5064666;28;20374;-81
2022/10/17 12:17:37;;;;;;;0.30;0.30;;;31.10;1.00;;;;;;5064987;28;20174;-83
2022/10/17 12:20:24;;;;;;;0.40;0.40;;;30.60;1.00;;;;;;5066880;28;20202;-84
2022/10/17 12:22:55;;;;;;;0.40;0.40;;;31.40;1.00;;;;;;5063556;28;21080;-80
2022/10/17 12:25:31;;;;;;;0.30;0.30;;;31.40;1.00;;;;;;5070420;28;20183;-83
2022/10/17 12:28:06;;;;;;;0.30;0.30;;;31.90;1.00;;;;;;5050985;28;20281;-79
2022/10/17 12:30:32;;;;;;;0.30;0.30;;;31.30;1.00;;;;;;5067646;28;20199;-85
2022/10/17 12:33:23;;;;;;;0.52;0.52;;;31.70;1.00;;;;;;5071090;28;20651;-81
2022/10/17 12:35:50;;;;;;;0.37;0.37;;;31.50;1.00;;;;;;5065934;28;20189;-83
2022/10/17 12:38:16;;;;;;;0.30;0.30;;;31.30;1.00;;;;;;5069153;28;20840;-84
2022/10/17 12:40:41;;;;;;;0.50;0.50;;;31.80;1.00;;;;;;5068231;28;20198;-80
2022/10/17 12:43:12;;;;;;;0.37;0.37;;;31.90;1.00;;;;;;5071746;28;20205;-82
2022/10/17 12:45:47;;;;;;;0.40;0.40;;;32.40;1.00;;;;;;5051810;28;20240;-82
2022/10/17 12:48:32;;;;;;;0.40;0.40;;;32.30;1.00;;;;;;5071747;28;20166;-79
2022/10/17 12:51:11;;;;;;;0.20;0.20;;;31.50;1.00;;;;;;5067376;28;20243;-83
2022/10/17 12:53:43;;;;;;;0.30;0.30;;;31.20;1.00;;;;;;5070386;28;20687;-83
2022/10/17 12:56:09;;;;;;;0.40;0.40;;;31.70;1.00;;;;;;5071323;28;20209;-79
2022/10/17 12:58:35;;;;;;;0.50;0.50;;;32.50;1.00;;;;;;5071514;28;20226;-79
2022/10/17 13:01:01;;;;;;;0.60;0.60;;;31.40;1.00;;;;;;5063549;28;20199;-83
2022/10/17 13:03:33;;;;;;;0.50;0.50;;;30.80;1.00;;;;;;5070616;28;20214;-83
2022/10/17 13:06:02;;;;;;;0.63;0.63;;;31.10;1.00;;;;;;5060236;28;20242;-81
2022/10/17 13:08:31;;;;;;;0.60;0.60;;;31.10;1.00;;;;;;5076732;28;20198;-82
2022/10/17 13:10:57;;;;;;;0.50;0.50;;;31.70;1.00;;;;;;5065677;28;20206;-82
2022/10/17 13:13:35;;;;;;;0.50;0.50;;;32.00;1.00;;;;;;5064937;28;20226;-82
2022/10/17 13:16:01;;;;;;;0.70;0.70;;;31.30;1.00;;;;;;5071878;28;20182;-82